createdAt,value
2023-04-27T00:01:12.463Z,1.80
2023-04-27T00:03:39.640Z,1.60
2023-04-27T00:06:06.393Z,1.70
2023-04-27T00:08:33.029Z,1.90
2023-04-27T00:10:59.665Z,2.20
2023-04-27T00:13:27.030Z,1.80
2023-04-27T00:15:53.929Z,2.00
2023-04-27T00:18:20.518Z,1.60
2023-04-27T00:20:47.041Z,1.50
2023-04-27T00:23:13.807Z,1.50
2023-04-27T00:25:40.361Z,1.80
2023-04-27T00:28:06.883Z,1.90
2023-04-27T00:30:33.445Z,1.70
2023-04-27T00:33:00.046Z,1.50
2023-04-27T00:35:26.623Z,1.50
2023-04-27T00:37:56.183Z,2.00
2023-04-27T00:40:22.778Z,2.60
2023-04-27T00:42:49.335Z,1.60
2023-04-27T00:45:15.879Z,2.30
2023-04-27T00:47:43.297Z,1.50
2023-04-27T00:50:12.084Z,1.50
2023-04-27T00:52:39.574Z,1.40
2023-04-27T00:55:07.310Z,2.20
2023-04-27T00:57:34.366Z,1.60
2023-04-27T01:00:01.655Z,1.50
2023-04-27T01:02:29.579Z,1.70
2023-04-27T01:04:56.900Z,1.40
2023-04-27T01:07:26.889Z,1.70
2023-04-27T01:09:53.659Z,1.90
2023-04-27T01:12:20.234Z,1.70
2023-04-27T01:14:46.769Z,1.70
2023-04-27T01:17:14.104Z,1.60
2023-04-27T01:19:40.676Z,2.30
2023-04-27T01:22:07.285Z,1.60
2023-04-27T01:24:33.928Z,1.50
2023-04-27T01:27:01.862Z,1.80
2023-04-27T01:29:28.470Z,1.20
2023-04-27T01:31:55.069Z,1.30
2023-04-27T01:34:21.837Z,1.90
2023-04-27T01:36:48.354Z,2.30
2023-04-27T01:39:15.340Z,2.10
2023-04-27T01:41:42.106Z,1.80
2023-04-27T01:44:08.774Z,1.60
2023-04-27T01:46:35.385Z,1.90
2023-04-27T01:49:02.011Z,1.20
2023-04-27T01:51:28.534Z,1.50
2023-04-27T01:53:55.092Z,1.90
2023-04-27T01:56:21.682Z,1.70
2023-04-27T01:58:48.170Z,1.50
2023-04-27T02:01:14.720Z,2.60
2023-04-27T02:03:42.111Z,1.40
2023-04-27T02:06:09.460Z,1.30
2023-04-27T02:08:36.393Z,1.60
2023-04-27T02:11:03.152Z,1.90
2023-04-27T02:13:29.672Z,1.90
2023-04-27T02:15:56.427Z,1.90
2023-04-27T02:18:23.140Z,1.60
2023-04-27T02:20:49.956Z,1.30
2023-04-27T02:23:16.813Z,1.90
2023-04-27T02:25:46.852Z,1.40
2023-04-27T02:28:14.204Z,1.30
2023-04-27T02:30:41.446Z,1.60
2023-04-27T02:33:08.288Z,1.30
2023-04-27T02:35:35.049Z,1.50
2023-04-27T02:38:01.607Z,1.50
2023-04-27T02:40:28.434Z,1.50
2023-04-27T02:42:55.031Z,1.60
2023-04-27T02:45:21.626Z,1.50
2023-04-27T02:47:48.276Z,1.90
2023-04-27T02:50:14.769Z,1.30
2023-04-27T02:52:41.305Z,1.30
2023-04-27T02:55:08.158Z,1.60
2023-04-27T02:57:34.647Z,1.40
2023-04-27T03:00:02.378Z,1.70
2023-04-27T03:02:30.098Z,1.40
2023-04-27T03:04:56.741Z,1.60
2023-04-27T03:07:23.307Z,1.30
2023-04-27T03:09:49.861Z,2.20
2023-04-27T03:12:16.369Z,1.50
2023-04-27T03:14:42.952Z,1.60
2023-04-27T03:17:10.485Z,1.70
2023-04-27T03:19:37.156Z,1.70
2023-04-27T03:22:03.671Z,1.80
2023-04-27T03:24:30.594Z,2.30
2023-04-27T03:26:57.127Z,2.80
2023-04-27T03:29:23.707Z,2.30
2023-04-27T03:31:50.322Z,2.50
2023-04-27T03:34:16.952Z,2.20
2023-04-27T03:36:43.605Z,2.30
2023-04-27T03:39:10.186Z,2.40
2023-04-27T03:41:36.715Z,1.70
2023-04-27T03:44:03.320Z,2.40
2023-04-27T03:46:29.893Z,2.60
2023-04-27T03:48:56.370Z,3.10
2023-04-27T03:51:23.002Z,2.70
2023-04-27T03:53:49.541Z,1.60
2023-04-27T03:56:16.340Z,2.40
2023-04-27T03:58:42.890Z,2.50
2023-04-27T04:01:10.270Z,2.20
2023-04-27T04:03:37.507Z,2.20
2023-04-27T04:06:04.353Z,2.00
2023-04-27T04:08:32.982Z,1.90
2023-04-27T04:11:00.058Z,1.80
2023-04-27T04:13:27.103Z,1.10
2023-04-27T04:16:07.638Z,1.10
2023-04-27T04:18:35.023Z,1.20
2023-04-27T04:21:01.937Z,1.10
2023-04-27T04:23:28.615Z,1.30
2023-04-27T04:25:58.475Z,1.40
2023-04-27T04:28:25.422Z,2.20
2023-04-27T04:30:52.419Z,1.60
2023-04-27T04:33:19.078Z,2.00
2023-04-27T04:35:46.345Z,2.00
2023-04-27T04:38:13.146Z,2.50
2023-04-27T04:40:41.064Z,1.70
2023-04-27T04:43:07.714Z,1.80
2023-04-27T04:45:34.299Z,1.40
2023-04-27T04:48:01.396Z,2.00
2023-04-27T04:50:28.021Z,1.50
2023-04-27T04:52:54.798Z,2.40
2023-04-27T04:55:21.360Z,1.60
2023-04-27T04:57:47.993Z,1.70
2023-04-27T05:00:14.788Z,1.30
2023-04-27T05:02:41.553Z,1.70
2023-04-27T05:05:09.073Z,1.40
2023-04-27T05:07:35.700Z,1.50
2023-04-27T05:10:02.288Z,1.50
2023-04-27T05:12:28.849Z,1.60
2023-04-27T05:14:55.456Z,1.00
2023-04-27T05:17:21.976Z,1.20
2023-04-27T05:19:48.564Z,1.00
2023-04-27T05:22:15.195Z,1.40
2023-04-27T05:24:41.859Z,1.40
2023-04-27T05:27:08.501Z,1.20
2023-04-27T05:29:34.952Z,1.50
2023-04-27T05:32:01.707Z,1.70
2023-04-27T05:34:28.416Z,1.50
2023-04-27T05:36:54.956Z,1.90
2023-04-27T05:39:21.512Z,1.60
2023-04-27T05:41:48.094Z,2.50
2023-04-27T05:44:15.056Z,1.50
2023-04-27T05:46:41.611Z,1.00
2023-04-27T05:49:08.166Z,1.70
2023-04-27T05:51:35.459Z,1.00
2023-04-27T05:54:02.138Z,1.40
2023-04-27T05:56:28.862Z,1.00
2023-04-27T05:58:55.429Z,1.30
2023-04-27T06:01:21.906Z,1.20
2023-04-27T06:03:48.472Z,1.50
2023-04-27T06:06:15.122Z,1.70
2023-04-27T06:08:41.974Z,1.30
2023-04-27T06:11:08.533Z,1.70
2023-04-27T06:13:35.089Z,1.70
2023-04-27T06:16:01.931Z,1.70
2023-04-27T06:18:28.550Z,1.90
2023-04-27T06:21:00.127Z,1.30
2023-04-27T06:23:26.667Z,1.50
2023-04-27T06:25:53.321Z,1.40
2023-04-27T06:28:19.883Z,1.40
2023-04-27T06:30:46.341Z,1.20
2023-04-27T06:33:12.768Z,1.20
2023-04-27T06:35:39.291Z,1.00
2023-04-27T06:38:07.671Z,1.50
2023-04-27T06:40:35.618Z,1.30
2023-04-27T06:43:02.221Z,1.40
2023-04-27T06:45:28.727Z,0.90
2023-04-27T06:47:55.476Z,1.10
2023-04-27T06:50:22.149Z,1.20
2023-04-27T06:52:48.645Z,1.10
2023-04-27T06:55:15.218Z,1.60
2023-04-27T06:57:42.075Z,1.10
2023-04-27T07:00:09.298Z,1.10
2023-04-27T07:02:36.053Z,1.30
2023-04-27T07:05:03.043Z,1.20
2023-04-27T07:07:29.870Z,1.40
2023-04-27T07:09:56.933Z,1.10
2023-04-27T07:12:23.414Z,1.60
2023-04-27T07:14:51.213Z,1.20
2023-04-27T07:17:17.755Z,1.30
2023-04-27T07:19:44.287Z,1.00
2023-04-27T07:22:11.685Z,1.40
2023-04-27T07:24:38.163Z,1.40
2023-04-27T07:27:04.700Z,1.10
2023-04-27T07:29:32.328Z,1.30
2023-04-27T07:31:59.526Z,1.10
2023-04-27T07:34:26.513Z,1.20
2023-04-27T07:36:54.705Z,1.30
2023-04-27T07:39:21.465Z,1.40
2023-04-27T07:41:48.313Z,1.30
2023-04-27T07:44:15.206Z,1.10
2023-04-27T07:46:41.685Z,1.30
2023-04-27T07:49:08.170Z,1.10
2023-04-27T07:51:34.766Z,1.50
2023-04-27T07:54:02.657Z,1.20
2023-04-27T07:56:29.200Z,1.30
2023-04-27T07:58:55.796Z,0.80
2023-04-27T08:01:22.597Z,1.10
2023-04-27T08:03:49.323Z,1.10
2023-04-27T08:06:16.725Z,1.30
2023-04-27T08:08:43.685Z,0.90
2023-04-27T08:11:11.461Z,1.00
2023-04-27T08:13:38.086Z,0.90
2023-04-27T08:16:04.990Z,1.10
2023-04-27T08:18:31.509Z,1.10
2023-04-27T08:20:58.196Z,1.50
2023-04-27T08:23:32.897Z,1.10
2023-04-27T08:25:59.389Z,0.80
2023-04-27T08:28:26.019Z,0.90
2023-04-27T08:30:52.552Z,1.10
2023-04-27T08:33:19.084Z,1.10
2023-04-27T08:35:45.638Z,0.90
2023-04-27T08:38:12.207Z,2.20
2023-04-27T08:40:45.085Z,0.80
2023-04-27T08:43:11.937Z,0.90
2023-04-27T08:45:43.875Z,1.00
2023-04-27T08:48:10.449Z,1.10
2023-04-27T08:50:41.471Z,0.70
2023-04-27T08:53:17.205Z,0.80
2023-04-27T08:55:43.772Z,1.60
2023-04-27T08:58:10.235Z,0.90
2023-04-27T09:00:42.042Z,0.80
2023-04-27T09:03:29.051Z,1.20
2023-04-27T09:06:03.690Z,1.00
2023-04-27T09:08:46.545Z,1.00
2023-04-27T09:11:14.351Z,0.80
2023-04-27T09:13:45.001Z,1.20
2023-04-27T09:16:15.234Z,0.80
2023-04-27T09:18:43.710Z,0.80
2023-04-27T09:21:10.529Z,0.80
2023-04-27T09:23:41.784Z,0.70
2023-04-27T09:26:08.672Z,0.60
2023-04-27T09:28:40.252Z,0.50
2023-04-27T09:31:09.503Z,1.10
2023-04-27T09:33:36.729Z,1.10
2023-04-27T09:36:07.246Z,0.90
2023-04-27T09:38:33.948Z,0.40
2023-04-27T09:41:01.201Z,1.00
2023-04-27T09:43:29.747Z,0.70
2023-04-27T09:45:57.807Z,0.70
2023-04-27T09:48:26.860Z,0.80
2023-04-27T09:50:53.746Z,0.70
2023-04-27T09:53:26.002Z,0.80
2023-04-27T09:56:20.960Z,0.90
2023-04-27T09:58:53.507Z,0.80
2023-04-27T10:01:37.832Z,0.70
2023-04-27T10:04:23.865Z,0.70
2023-04-27T10:07:12.786Z,0.80
2023-04-27T10:09:45.258Z,0.70
2023-04-27T10:12:33.179Z,0.90
2023-04-27T10:15:01.066Z,0.60
2023-04-27T10:17:36.513Z,0.60
2023-04-27T10:20:07.722Z,0.40
2023-04-27T10:22:45.808Z,0.40
2023-04-27T10:25:23.089Z,0.50
2023-04-27T10:27:55.646Z,0.80
2023-04-27T10:30:24.536Z,0.40
2023-04-27T10:32:53.423Z,0.50
2023-04-27T10:35:21.775Z,0.40
2023-04-27T10:37:48.389Z,0.40
2023-04-27T10:40:19.141Z,1.50
2023-04-27T10:42:48.163Z,0.70
2023-04-27T10:45:15.112Z,0.50
2023-04-27T10:47:43.819Z,0.50
2023-04-27T10:50:13.488Z,0.50
2023-04-27T10:52:47.021Z,0.50
2023-04-27T10:55:18.201Z,0.80
2023-04-27T10:57:53.424Z,0.60
2023-04-27T11:00:36.668Z,0.50
2023-04-27T11:03:16.602Z,0.50
2023-04-27T11:05:45.227Z,0.50
2023-04-27T11:08:14.273Z,0.60
2023-04-27T11:10:45.150Z,0.50
2023-04-27T11:13:26.243Z,0.60
2023-04-27T11:15:54.973Z,1.20
2023-04-27T11:18:23.951Z,0.50
2023-04-27T11:20:55.236Z,0.40
2023-04-27T11:23:29.023Z,0.50
2023-04-27T11:25:56.918Z,1.30
2023-04-27T11:28:24.635Z,0.90
2023-04-27T11:30:59.571Z,0.90
2023-04-27T11:33:27.933Z,0.70
2023-04-27T11:35:54.901Z,0.40
2023-04-27T11:38:22.068Z,0.70
2023-04-27T11:41:03.777Z,0.60
2023-04-27T11:43:30.763Z,0.70
2023-04-27T11:45:58.966Z,1.30
2023-04-27T11:48:27.275Z,0.60
2023-04-27T11:50:53.806Z,0.50
2023-04-27T11:53:34.766Z,0.40
2023-04-27T11:56:05.752Z,0.80
2023-04-27T11:58:36.701Z,0.60
2023-04-27T12:01:04.553Z,0.50
2023-04-27T12:03:32.004Z,0.50
2023-04-27T12:06:11.332Z,0.80
2023-04-27T12:08:45.586Z,0.20
2023-04-27T12:11:12.393Z,0.80
2023-04-27T12:13:38.928Z,0.40
2023-04-27T12:16:06.103Z,0.50
2023-04-27T12:18:32.807Z,0.40
2023-04-27T12:21:03.080Z,1.00
2023-04-27T12:23:29.921Z,0.40
2023-04-27T12:25:56.593Z,0.40
2023-04-27T12:28:23.527Z,0.50
2023-04-27T12:30:50.403Z,0.20
2023-04-27T12:33:17.426Z,0.30
2023-04-27T12:35:44.040Z,0.30
2023-04-27T12:38:10.531Z,0.30
2023-04-27T12:40:37.754Z,0.30
2023-04-27T12:43:04.322Z,0.60
2023-04-27T12:45:31.087Z,0.20
2023-04-27T12:50:27.260Z,0.20
2023-04-27T12:52:53.809Z,1.60
2023-04-27T12:55:32.043Z,0.30
2023-04-27T12:58:00.121Z,0.40
2023-04-27T13:00:26.806Z,0.60
2023-04-27T13:02:53.801Z,0.30
2023-04-27T13:05:22.188Z,0.30
2023-04-27T13:07:48.800Z,0.60
2023-04-27T13:10:15.495Z,0.40
2023-04-27T13:12:42.166Z,0.20
2023-04-27T13:15:09.858Z,0.40
2023-04-27T13:17:36.719Z,0.30
2023-04-27T13:20:03.388Z,0.70
2023-04-27T13:22:29.937Z,0.30
2023-04-27T13:24:56.504Z,0.40
2023-04-27T13:27:25.358Z,0.80
2023-04-27T13:29:51.904Z,0.20
2023-04-27T13:32:18.684Z,0.50
2023-04-27T13:34:45.521Z,1.00
2023-04-27T13:37:12.052Z,0.90
2023-04-27T13:39:38.548Z,0.70
2023-04-27T13:42:05.155Z,0.70
2023-04-27T13:44:31.905Z,0.80
2023-04-27T13:46:58.662Z,0.50
2023-04-27T13:49:26.028Z,0.70
2023-04-27T13:51:52.823Z,0.60
2023-04-27T13:54:20.571Z,0.80
2023-04-27T13:56:47.947Z,0.40
2023-04-27T13:59:16.226Z,0.80
2023-04-27T14:01:42.914Z,0.70
2023-04-27T14:04:10.118Z,0.50
2023-04-27T14:06:36.821Z,0.50
2023-04-27T14:09:04.085Z,0.70
2023-04-27T14:11:30.818Z,0.20
2023-04-27T14:13:58.064Z,0.30
2023-04-27T14:16:24.708Z,0.50
2023-04-27T14:18:52.484Z,0.50
2023-04-27T14:21:19.008Z,0.20
2023-04-27T14:23:45.476Z,0.20
2023-04-27T14:26:12.217Z,0.30
2023-04-27T14:28:38.830Z,0.20
2023-04-27T14:31:05.515Z,0.40
2023-04-27T14:33:32.083Z,0.30
2023-04-27T14:35:58.708Z,0.60
2023-04-27T14:38:25.200Z,0.40
2023-04-27T14:40:51.740Z,0.70
2023-04-27T14:43:18.250Z,0.40
2023-04-27T14:45:52.367Z,0.80
2023-04-27T14:48:21.003Z,0.70
2023-04-27T14:50:47.537Z,0.70
2023-04-27T14:53:14.033Z,0.30
2023-04-27T14:55:41.270Z,0.60
2023-04-27T14:58:07.848Z,0.30
2023-04-27T15:00:34.689Z,0.70
2023-04-27T15:03:01.375Z,0.50
2023-04-27T15:05:28.195Z,0.40
2023-04-27T15:07:55.068Z,0.80
2023-04-27T15:10:21.518Z,0.70
2023-04-27T15:12:48.091Z,0.70
2023-04-27T15:15:14.649Z,0.90
2023-04-27T15:17:41.736Z,0.80
2023-04-27T15:20:08.744Z,0.90
2023-04-27T15:22:35.249Z,0.70
2023-04-27T15:25:01.946Z,0.60
2023-04-27T15:27:28.504Z,0.40
2023-04-27T15:29:55.341Z,0.70
2023-04-27T15:32:24.565Z,0.30
2023-04-27T15:34:52.000Z,0.60
2023-04-27T15:37:18.832Z,0.30
2023-04-27T15:39:45.376Z,0.70
2023-04-27T15:42:11.876Z,0.50
2023-04-27T15:44:38.323Z,0.70
2023-04-27T15:47:05.233Z,0.50
2023-04-27T15:49:34.459Z,0.40
2023-04-27T15:52:07.017Z,0.40
2023-04-27T15:54:33.641Z,0.50
2023-04-27T15:57:04.142Z,0.50
2023-04-27T15:59:31.315Z,0.50
2023-04-27T16:01:57.960Z,0.50
2023-04-27T16:04:24.754Z,0.40
2023-04-27T16:06:51.220Z,0.50
2023-04-27T16:09:17.954Z,0.40
2023-04-27T16:11:45.129Z,0.50
2023-04-27T16:14:11.762Z,0.30
2023-04-27T16:16:38.873Z,0.40
2023-04-27T16:19:05.627Z,0.70
2023-04-27T16:21:32.188Z,0.40
2023-04-27T16:23:58.626Z,0.50
2023-04-27T16:26:27.726Z,0.30
2023-04-27T16:28:56.776Z,0.70
2023-04-27T16:31:23.337Z,0.70
2023-04-27T16:33:49.874Z,0.50
2023-04-27T16:36:16.889Z,0.60
2023-04-27T16:38:43.306Z,0.70
2023-04-27T16:41:09.819Z,0.50
2023-04-27T16:43:36.289Z,0.70
2023-04-27T16:46:02.786Z,0.80
2023-04-27T16:48:30.388Z,0.50
2023-04-27T16:50:57.469Z,0.50
2023-04-27T16:53:24.041Z,0.60
2023-04-27T16:55:50.540Z,0.50
2023-04-27T16:58:17.060Z,0.70
2023-04-27T17:00:43.617Z,0.40
2023-04-27T17:03:10.971Z,0.50
2023-04-27T17:05:37.580Z,0.70
2023-04-27T17:08:05.428Z,0.50
2023-04-27T17:10:32.429Z,0.70
2023-04-27T17:12:59.295Z,0.60
2023-04-27T17:15:26.668Z,0.30
2023-04-27T17:17:53.228Z,0.50
2023-04-27T17:20:19.936Z,0.90
2023-04-27T17:22:46.558Z,0.30
2023-04-27T17:25:13.185Z,0.70
2023-04-27T17:27:39.784Z,0.40
2023-04-27T17:30:08.276Z,0.60
2023-04-27T17:32:35.090Z,0.60
2023-04-27T17:35:01.627Z,0.40
2023-04-27T17:37:28.137Z,0.50
2023-04-27T17:39:54.720Z,0.60
2023-04-27T17:42:21.246Z,0.40
2023-04-27T17:44:47.833Z,0.50
2023-04-27T17:47:14.575Z,0.60
2023-04-27T17:49:41.136Z,0.60
2023-04-27T17:52:07.690Z,0.60
2023-04-27T17:54:34.200Z,0.40
2023-04-27T17:57:01.880Z,0.70
2023-04-27T17:59:28.982Z,0.60
2023-04-27T18:01:55.689Z,0.50
2023-04-27T18:04:22.396Z,0.60
2023-04-27T18:06:49.184Z,0.60
2023-04-27T18:09:16.326Z,0.70
2023-04-27T18:11:43.039Z,0.70
2023-04-27T18:14:10.474Z,0.50
2023-04-27T18:16:37.045Z,0.60
2023-04-27T18:19:03.594Z,0.80
2023-04-27T18:21:30.228Z,0.50
2023-04-27T18:23:57.095Z,0.90
2023-04-27T18:26:23.613Z,0.90
2023-04-27T18:28:50.188Z,1.00
2023-04-27T18:31:17.725Z,0.80
2023-04-27T18:33:45.411Z,1.10
2023-04-27T18:36:12.272Z,0.80
2023-04-27T18:38:38.836Z,0.80
2023-04-27T18:41:06.020Z,0.80
2023-04-27T18:43:35.855Z,0.70
2023-04-27T18:46:03.339Z,1.10
2023-04-27T18:48:29.819Z,0.90
2023-04-27T18:50:56.351Z,1.00
2023-04-27T18:53:22.872Z,0.60
2023-04-27T18:55:49.340Z,1.00
2023-04-27T18:58:16.146Z,0.90
2023-04-27T19:00:42.724Z,0.60
2023-04-27T19:03:09.755Z,0.70
2023-04-27T19:05:36.630Z,0.70
2023-04-27T19:08:03.595Z,0.50
2023-04-27T19:10:30.155Z,0.60
2023-04-27T19:12:57.111Z,0.80
2023-04-27T19:15:23.769Z,1.70
2023-04-27T19:18:02.142Z,0.60
2023-04-27T19:20:36.299Z,0.70
2023-04-27T19:23:02.810Z,0.90
2023-04-27T19:25:29.388Z,1.10
2023-04-27T19:27:55.991Z,1.40
2023-04-27T19:30:22.971Z,1.00
2023-04-27T19:32:49.481Z,0.80
2023-04-27T19:35:16.244Z,0.60
2023-04-27T19:37:42.689Z,1.10
2023-04-27T19:40:09.849Z,1.00
2023-04-27T19:42:36.376Z,1.30
2023-04-27T19:45:04.071Z,0.90
2023-04-27T19:47:30.963Z,1.20
2023-04-27T19:49:59.117Z,0.80
2023-04-27T19:52:26.004Z,1.00
2023-04-27T19:54:53.688Z,0.70
2023-04-27T19:57:21.626Z,0.70
2023-04-27T19:59:48.320Z,0.90
2023-04-27T20:02:15.371Z,0.70
2023-04-27T20:04:42.398Z,0.80
2023-04-27T20:07:09.336Z,1.20
2023-04-27T20:09:35.955Z,1.60
2023-04-27T20:12:03.711Z,1.10
2023-04-27T20:14:33.687Z,0.80
2023-04-27T20:17:00.929Z,1.00
2023-04-27T20:19:27.464Z,0.80
2023-04-27T20:21:53.933Z,0.70
2023-04-27T20:24:20.516Z,0.90
2023-04-27T20:26:47.073Z,0.90
2023-04-27T20:29:13.669Z,0.80
2023-04-27T20:31:40.242Z,1.10
2023-04-27T20:34:06.897Z,1.40
2023-04-27T20:36:33.830Z,1.00
2023-04-27T20:39:05.158Z,0.80
2023-04-27T20:41:33.786Z,1.00
2023-04-27T20:44:00.489Z,1.30
2023-04-27T20:46:27.332Z,0.90
2023-04-27T20:48:54.060Z,1.30
2023-04-27T20:51:20.560Z,1.20
2023-04-27T20:53:47.116Z,0.70
2023-04-27T20:56:13.601Z,1.30
2023-04-27T20:58:40.104Z,0.80
2023-04-27T21:01:06.631Z,1.20
2023-04-27T21:03:33.416Z,0.80
2023-04-27T21:06:00.127Z,0.90
2023-04-27T21:08:28.031Z,1.20
2023-04-27T21:10:54.582Z,0.90
2023-04-27T21:13:21.378Z,1.00
2023-04-27T21:15:47.898Z,1.20
2023-04-27T21:18:26.667Z,1.20
2023-04-27T21:20:56.526Z,0.90
2023-04-27T21:23:23.028Z,1.30
2023-04-27T21:25:49.517Z,0.70
2023-04-27T21:28:16.202Z,0.90
2023-04-27T21:30:42.963Z,0.90
2023-04-27T21:33:09.478Z,0.80
2023-04-27T21:35:36.289Z,1.20
2023-04-27T21:38:02.785Z,0.70
2023-04-27T21:40:29.356Z,0.90
2023-04-27T21:42:56.517Z,1.10
2023-04-27T21:45:23.342Z,0.90
2023-04-27T21:47:49.949Z,0.80
2023-04-27T21:50:16.833Z,0.90
2023-04-27T21:52:43.411Z,1.30
2023-04-27T21:55:10.096Z,1.30
2023-04-27T21:57:36.917Z,1.20
2023-04-27T22:00:13.274Z,1.00
2023-04-27T22:02:42.753Z,0.80
2023-04-27T22:05:09.812Z,1.00
2023-04-27T22:07:37.510Z,0.80
2023-04-27T22:10:05.811Z,0.80
2023-04-27T22:12:32.550Z,0.90
2023-04-27T22:14:59.279Z,1.00
2023-04-27T22:17:26.042Z,1.80
2023-04-27T22:19:52.956Z,1.00
2023-04-27T22:22:19.444Z,0.80
2023-04-27T22:24:45.941Z,1.30
2023-04-27T22:27:12.604Z,1.30
2023-04-27T22:29:39.091Z,1.10
2023-04-27T22:32:06.753Z,0.70
2023-04-27T22:34:33.812Z,1.00
2023-04-27T22:37:00.635Z,1.30
2023-04-27T22:39:27.267Z,1.10
2023-04-27T22:41:53.748Z,0.90
2023-04-27T22:44:20.430Z,0.90
2023-04-27T22:46:47.040Z,0.80
2023-04-27T22:49:15.023Z,1.00
2023-04-27T22:51:41.565Z,1.20
2023-04-27T22:54:08.047Z,1.30
2023-04-27T22:56:34.676Z,0.70
2023-04-27T22:59:01.267Z,0.90
2023-04-27T23:01:27.735Z,0.90
2023-04-27T23:03:54.454Z,0.90
2023-04-27T23:06:21.191Z,0.80
2023-04-27T23:08:48.171Z,1.10
2023-04-27T23:11:15.544Z,0.90
2023-04-27T23:13:42.349Z,0.60
2023-04-27T23:16:10.164Z,0.50
2023-04-27T23:18:36.886Z,0.70
2023-04-27T23:21:03.568Z,0.70
2023-04-27T23:23:30.293Z,1.20
2023-04-27T23:25:56.739Z,0.60
2023-04-27T23:28:23.189Z,0.60
2023-04-27T23:30:54.580Z,0.70
2023-04-27T23:33:21.911Z,0.70
2023-04-27T23:35:48.403Z,1.70
2023-04-27T23:38:14.874Z,0.80
2023-04-27T23:40:41.327Z,1.10
2023-04-27T23:43:07.754Z,0.70
2023-04-27T23:45:34.180Z,0.70
2023-04-27T23:48:00.760Z,0.60
2023-04-27T23:50:27.218Z,1.20
2023-04-27T23:52:53.723Z,0.90
2023-04-27T23:55:20.437Z,0.70
2023-04-27T23:57:47.035Z,1.20
